Sint-Truiden, Belgium
Current Conditions -  °F | °C
As of 11:25 AM on Wednesday 22 Oct 2014 (Local Time) from EBDT Reporting Station
Scattered Clouds Scattered Clouds  
Wind Chill: 50°   Ceiling: Unl
Heat Index: 50°   Visibility: 6mi
Dew Point: 45°   Wind: 12mph
Humidity: 82%   Direction: 280°W
Pressure: 30.12"   Gusts: NA
Location:  50.82°N, 5.19°E
Report Text: EBDT 220925Z 28010KT 9999 FEW021TCU SCT045 10/07 Q1020 BLU BLU TEMPO WHT
Loading
Personal Weather Stations






























Interactive Weather Map
Tropical Storm Tracking
New forecast layout! Learn more

10-Day Weather Forecast

Advertisements
Track Severe Weather on mobile